| time (UTC) | temp F | wind direction | speed MPH | gust MPH | rain 1hr in | rain 24hr in | rain mn in | humidity % | barometer mb |
| 20260510065021 | 46 | 22 | 5.0 | 9.0 | 0.00 | 0.03 | 0.00 | 61 | |
| 20260510064520 | 46 | 10 | 5.0 | 11.0 | 0.00 | 0.03 | 0.00 | 64 | |
| 20260510064020 | 46 | 9 | 7.0 | 13.0 | 0.00 | 0.03 | 0.00 | 67 | |
| 20260510063519 | 46 | 5 | 4.0 | 14.0 | 0.00 | 0.03 | 0.00 | 68 | |
| 20260510063018 | 47 | 5 | 0.0 | 3.0 | 0.00 | 0.03 | 0.00 | 66 | |
| 20260510062538 | 47 | 38 | 1.0 | 7.0 | 0.00 | 0.03 | 0.00 | 65 | |
| 20260510062037 | 47 | 17 | 2.0 | 5.0 | 0.00 | 0.03 | 0.00 | 66 | |
| 20260510061515 | 47 | 6 | 5.0 | 12.0 | 0.00 | 0.03 | 0.00 | 66 | |
| 20260510061013 | 47 | 9 | 4.0 | 9.0 | 0.00 | 0.03 | 0.00 | 67 | |
| 20260510060512 | 47 | 4 | 1.0 | 3.0 | 0.00 | 0.03 | 0.00 | 67 | |
| 20260510060012 | 48 | 8 | 1.0 | 4.0 | 0.00 | 0.03 | 0.00 | 66 | |
| 20260510055511 | 48 | 13 | 1.0 | 4.0 | 0.00 | 0.03 | 0.00 | 66 | |
| 20260510055009 | 48 | 22 | 3.0 | 9.0 | 0.00 | 0.03 | 0.00 | 66 | |
| 20260510054509 | 48 | 6 | 4.0 | 12.0 | 0.00 | 0.03 | 0.00 | 66 | |
| 20260510054007 | 49 | 13 | 0.0 | 0.0 | 0.00 | 0.03 | 0.00 | 66 | |
| 20260510053507 | 49 | 13 | 0.0 | 3.0 | 0.00 | 0.03 | 0.00 | 65 | |
| 20260510053005 | 49 | 13 | 0.0 | 3.0 | 0.00 | 0.03 | 0.00 | 64 | |
| 20260510052504 | 49 | 8 | 1.0 | 5.0 | 0.00 | 0.03 | 0.00 | 64 | |
| 20260510052003 | 50 | 24 | 3.0 | 11.0 | 0.00 | 0.03 | 0.00 | 63 | |
| 20260510051502 | 50 | 6 | 2.0 | 5.0 | 0.00 | 0.03 | 0.00 | 64 | |
| 20260510051001 | 50 | 1 | 3.0 | 7.0 | 0.00 | 0.03 | 0.00 | 64 | |
| 20260510050500 | 50 | 20 | 3.0 | 10.0 | 0.00 | 0.03 | 0.00 | 64 | |
| 20260510050030 | 50 | 16 | 2.0 | 6.0 | 0.00 | 0.03 | 0.00 | 63 | |
| 20260510045959 | 50 | 16 | 2.0 | 6.0 | 0.00 | 0.03 | 0.00 | 63 | |
| 20260510045458 | 51 | 21 | 0.0 | 3.0 | 0.00 | 0.03 | 0.00 | 61 | |
| 20260510044957 | 51 | 339 | 0.0 | 0.0 | 0.00 | 0.03 | 0.00 | 61 | |
| 20260510044456 | 51 | 4 | 1.0 | 5.0 | 0.00 | 0.03 | 0.00 | 60 | |
| 20260510043956 | 51 | 10 | 3.0 | 7.0 | 0.00 | 0.03 | 0.00 | 60 | |
| 20260510043454 | 51 | 19 | 5.0 | 14.0 | 0.00 | 0.03 | 0.00 | 61 | |
| 20260510042953 | 51 | 16 | 3.0 | 8.0 | 0.00 | 0.03 | 0.00 | 62 | |
| 20260510042452 | 51 | 2 | 0.0 | 2.0 | 0.00 | 0.03 | 0.00 | 62 | |
| 20260510041951 | 51 | 28 | 1.0 | 5.0 | 0.00 | 0.03 | 0.00 | 63 | |
| 20260510041450 | 52 | 9 | 4.0 | 9.0 | 0.00 | 0.03 | 0.00 | 63 | |
| 20260510040949 | 52 | 358 | 4.0 | 7.0 | 0.00 | 0.03 | 0.00 | 61 | |
| 20260510040448 | 52 | 359 | 3.0 | 7.0 | 0.00 | 0.03 | 0.00 | 60 | |
| 20260510035947 | 53 | 343 | 1.0 | 5.0 | 0.00 | 0.03 | 0.03 | 58 | |
| 20260510035507 | 53 | 352 | 3.0 | 9.0 | 0.00 | 0.03 | 0.03 | 56 | |
| 20260510034945 | 53 | 7 | 3.0 | 8.0 | 0.00 | 0.03 | 0.03 | 57 | |
| 20260510034444 | 54 | 357 | 5.0 | 7.0 | 0.00 | 0.03 | 0.03 | 55 | |
| 20260510033943 | 54 | 2 | 4.0 | 7.0 | 0.00 | 0.03 | 0.03 | 55 | |
| 20260510033442 | 54 | 351 | 6.0 | 15.0 | 0.00 | 0.03 | 0.03 | 54 | |
| 20260510032941 | 55 | 353 | 6.0 | 11.0 | 0.00 | 0.03 | 0.03 | 53 | |
| 20260510032440 | 55 | 351 | 8.0 | 13.0 | 0.00 | 0.03 | 0.03 | 52 | |
| 20260510031939 | 55 | 0 | 9.0 | 18.0 | 0.00 | 0.03 | 0.03 | 52 | |
| 20260510031439 | 55 | 357 | 6.0 | 13.0 | 0.00 | 0.03 | 0.03 | 51 | |
| 20260510030937 | 56 | 356 | 6.0 | 15.0 | 0.00 | 0.03 | 0.03 | 50 | |
| 20260510030436 | 56 | 351 | 10.0 | 17.0 | 0.00 | 0.03 | 0.03 | 50 | |
| 20260510025935 | 56 | 357 | 10.0 | 23.0 | 0.00 | 0.03 | 0.03 | 49 | |
| 20260510025434 | 56 | 351 | 14.0 | 26.0 | 0.00 | 0.03 | 0.03 | 48 | |
| 20260510024954 | 56 | 356 | 13.0 | 25.0 | 0.00 | 0.03 | 0.03 | 49 | |
| 20260510024432 | 57 | 357 | 9.0 | 18.0 | 0.00 | 0.03 | 0.03 | 48 | |
| 20260510023952 | 57 | 352 | 13.0 | 25.0 | 0.00 | 0.03 | 0.03 | 48 | |
| 20260510023451 | 57 | 351 | 15.0 | 30.0 | 0.00 | 0.03 | 0.03 | 47 | |
| 20260510022950 | 58 | 4 | 11.0 | 23.0 | 0.00 | 0.03 | 0.03 | 46 | |
| 20260510022428 | 58 | 359 | 13.0 | 21.0 | 0.00 | 0.03 | 0.03 | 46 | |
| 20260510021927 | 58 | 3 | 15.0 | 27.0 | 0.00 | 0.03 | 0.03 | 46 | |
| 20260510021426 | 58 | 357 | 15.0 | 23.0 | 0.00 | 0.03 | 0.03 | 45 | |
| 20260510020946 | 59 | 4 | 13.0 | 22.0 | 0.00 | 0.03 | 0.03 | 45 | |
| 20260510020424 | 59 | 354 | 19.0 | 40.0 | 0.00 | 0.03 | 0.03 | 44 | |
| 20260510015923 | 60 | 357 | 17.0 | 41.0 | 0.00 | 0.03 | 0.03 | 44 | |
| 20260510015422 | 60 | 348 | 15.0 | 30.0 | 0.00 | 0.03 | 0.03 | 45 | |
| 20260510014942 | 61 | 353 | 17.0 | 31.0 | 0.00 | 0.03 | 0.03 | 46 | |
| 20260510014420 | 61 | 353 | 14.0 | 34.0 | 0.00 | 0.03 | 0.03 | 47 | |
| 20260510013919 | 61 | 353 | 13.0 | 21.0 | 0.00 | 0.03 | 0.03 | 48 | |
| 20260510013418 | 60 | 350 | 9.0 | 22.0 | 0.00 | 0.03 | 0.03 | 49 | |
| 20260510012917 | 60 | 349 | 8.0 | 17.0 | 0.00 | 0.03 | 0.03 | 50 | |
| 20260510012416 | 60 | 2 | 8.0 | 12.0 | 0.00 | 0.03 | 0.03 | 50 | |
| 20260510011915 | 60 | 351 | 7.0 | 13.0 | 0.00 | 0.03 | 0.03 | 50 | |
| 20260510011414 | 60 | 353 | 10.0 | 17.0 | 0.00 | 0.03 | 0.03 | 50 | |
| 20260510010913 | 60 | 354 | 8.0 | 13.0 | 0.00 | 0.03 | 0.03 | 50 | |
| 20260510010417 | 60 | 357 | 9.0 | 15.0 | 0.00 | 0.03 | 0.03 | 50 | |
| 20260510005932 | 60 | 357 | 7.0 | 15.0 | 0.00 | 0.03 | 0.03 | 50 | |
| 20260510005431 | 61 | 358 | 5.0 | 10.0 | 0.00 | 0.03 | 0.03 | 50 | |
| 20260510004909 | 61 | 358 | 6.0 | 12.0 | 0.00 | 0.03 | 0.03 | 50 | |
| 20260510004408 | 61 | 358 | 4.0 | 9.0 | 0.00 | 0.03 | 0.03 | 50 | |
| 20260510003906 | 62 | 355 | 4.0 | 11.0 | 0.00 | 0.03 | 0.03 | 50 | |
| 20260510003406 | 62 | 353 | 4.0 | 6.0 | 0.00 | 0.03 | 0.03 | 50 | |
| 20260510002905 | 62 | 357 | 4.0 | 9.0 | 0.00 | 0.03 | 0.03 | 51 | |
| 20260510002403 | 63 | 352 | 4.0 | 9.0 | 0.00 | 0.03 | 0.03 | 48 | |
| 20260510001903 | 63 | 314 | 7.0 | 15.0 | 0.00 | 0.03 | 0.03 | 46 | |
| 20260510001423 | 63 | 321 | 7.0 | 15.0 | 0.00 | 0.03 | 0.03 | 45 | |
| 20260510000901 | 64 | 333 | 6.0 | 15.0 | 0.00 | 0.03 | 0.03 | 45 | |
| 20260510000421 | 64 | 313 | 5.0 | 16.0 | 0.00 | 0.03 | 0.03 | 43 | |
| 20260509235858 | 64 | 315 | 9.0 | 18.0 | 0.00 | 0.03 | 0.03 | 42 | |
| 20260509235418 | 65 | 310 | 10.0 | 24.0 | 0.00 | 0.03 | 0.03 | 41 | |
| 20260509234918 | 65 | 310 | 15.0 | 35.0 | 0.00 | 0.03 | 0.03 | 41 | |
| 20260509234356 | 65 | 305 | 11.0 | 42.0 | 0.00 | 0.03 | 0.03 | 41 | |
| 20260509233916 | 65 | 302 | 9.0 | 18.0 | 0.00 | 0.03 | 0.03 | 42 | |
| 20260509233353 | 66 | 314 | 16.0 | 41.0 | 0.00 | 0.03 | 0.03 | 40 | |
| 20260509232853 | 66 | 310 | 18.0 | 31.0 | 0.00 | 0.03 | 0.03 | 39 | |
| 20260509232351 | 66 | 308 | 14.0 | 26.0 | 0.00 | 0.03 | 0.03 | 41 | |
| 20260509231850 | 67 | 301 | 12.0 | 24.0 | 0.00 | 0.03 | 0.03 | 39 | |
| 20260509231350 | 68 | 308 | 12.0 | 27.0 | 0.00 | 0.03 | 0.03 | 38 | |
| 20260509230849 | 69 | 327 | 15.0 | 28.0 | 0.00 | 0.03 | 0.03 | 38 | |
| 20260509230348 | 69 | 338 | 14.0 | 35.0 | 0.00 | 0.03 | 0.03 | 38 | |
| 20260509225846 | 70 | 340 | 13.0 | 31.0 | 0.00 | 0.03 | 0.03 | 37 | |
| 20260509225345 | 70 | 323 | 17.0 | 38.0 | 0.00 | 0.03 | 0.03 | 36 | |
| 20260509224844 | 70 | 329 | 14.0 | 38.0 | 0.00 | 0.03 | 0.03 | 37 | |
| 20260509224405 | 70 | 322 | 14.0 | 28.0 | 0.00 | 0.03 | 0.03 | 36 | |
| 20260509223843 | 70 | 341 | 19.0 | 43.0 | 0.00 | 0.03 | 0.03 | 35 | |
| 20260509223342 | 71 | 314 | 20.0 | 43.0 | 0.00 | 0.03 | 0.03 | 34 | |
| 20260509222901 | 70 | 311 | 21.0 | 39.0 | 0.00 | 0.03 | 0.03 | 33 | |
| 20260509222340 | 71 | 303 | 19.0 | 38.0 | 0.00 | 0.03 | 0.03 | 33 | |
| 20260509221859 | 71 | 323 | 19.0 | 34.0 | 0.00 | 0.03 | 0.03 | 34 | |
| 20260509221337 | 70 | 313 | 19.0 | 39.0 | 0.00 | 0.03 | 0.03 | 34 | |
| 20260509220836 | 71 | 305 | 20.0 | 37.0 | 0.00 | 0.03 | 0.03 | 32 | |
| 20260509220336 | 71 | 300 | 25.0 | 47.0 | 0.00 | 0.03 | 0.03 | 32 | |
| 20260509215834 | 71 | 305 | 24.0 | 42.0 | 0.00 | 0.03 | 0.03 | 32 | |
| 20260509215333 | 71 | 312 | 29.0 | 53.0 | 0.00 | 0.03 | 0.03 | 33 | |
| 20260509214832 | 70 | 306 | 26.0 | 54.0 | 0.00 | 0.03 | 0.03 | 34 | |
| 20260509214331 | 68 | 308 | 18.0 | 38.0 | 0.00 | 0.03 | 0.03 | 36 | |
| 20260509213851 | 68 | 302 | 14.0 | 26.0 | 0.00 | 0.03 | 0.03 | 36 | |
| 20260509213329 | 69 | 288 | 19.0 | 41.0 | 0.00 | 0.03 | 0.03 | 35 | |
| 20260509212828 | 70 | 296 | 21.0 | 40.0 | 0.00 | 0.03 | 0.03 | 35 | |
| 20260509212328 | 70 | 297 | 17.0 | 37.0 | 0.00 | 0.03 | 0.03 | 36 | |
| 20260509211847 | 69 | 311 | 16.0 | 33.0 | 0.00 | 0.03 | 0.03 | 35 | |
| 20260509211346 | 69 | 295 | 20.0 | 35.0 | 0.00 | 0.03 | 0.03 | 35 | |
| 20260509210824 | 69 | 281 | 19.0 | 36.0 | 0.00 | 0.03 | 0.03 | 35 | |
| 20260509210324 | 69 | 296 | 14.0 | 25.0 | 0.00 | 0.03 | 0.03 | 37 | |
| 20260509205822 | 68 | 289 | 14.0 | 38.0 | 0.00 | 0.03 | 0.03 | 37 | |
| 20260509205322 | 68 | 311 | 17.0 | 37.0 | 0.00 | 0.03 | 0.03 | 36 | |
| 20260509204841 | 69 | 283 | 18.0 | 38.0 | 0.00 | 0.03 | 0.03 | 36 | |
| 20260509204319 | 69 | 306 | 12.0 | 35.0 | 0.00 | 0.03 | 0.03 | 38 | |
| 20260509203818 | 68 | 309 | 11.0 | 30.0 | 0.00 | 0.03 | 0.03 | 42 | |
| 20260509203317 | 67 | 311 | 11.0 | 22.0 | 0.00 | 0.03 | 0.03 | 41 | |
| 20260509202816 | 67 | 328 | 13.0 | 31.0 | 0.00 | 0.03 | 0.03 | 43 | |
| 20260509202315 | 67 | 311 | 17.0 | 30.0 | 0.00 | 0.03 | 0.03 | 44 | |
| 20260509201814 | 66 | 308 | 21.0 | 34.0 | 0.00 | 0.03 | 0.03 | 44 | |
| 20260509201334 | 67 | 318 | 18.0 | 39.0 | 0.00 | 0.03 | 0.03 | 44 | |
| 20260509200812 | 67 | 323 | 14.0 | 25.0 | 0.00 | 0.03 | 0.03 | 46 | |
| 20260509200311 | 67 | 331 | 13.0 | 32.0 | 0.00 | 0.03 | 0.03 | 46 | |
| 20260509195831 | 68 | 335 | 15.0 | 29.0 | 0.00 | 0.03 | 0.03 | 47 | |
| 20260509195309 | 67 | 322 | 14.0 | 34.0 | 0.00 | 0.03 | 0.03 | 50 | |
| 20260509194808 | 66 | 322 | 13.0 | 22.0 | 0.00 | 0.03 | 0.03 | 60 | |
| 20260509194307 | 64 | 330 | 5.0 | 10.0 | 0.01 | 0.03 | 0.03 | 71 | |
| 20260509193806 | 64 | 266 | 5.0 | 11.0 | 0.03 | 0.03 | 0.03 | 73 | |
| 20260509193305 | 63 | 252 | 4.0 | 15.0 | 0.03 | 0.03 | 0.03 | 77 | |
| 20260509192804 | 62 | 265 | 5.0 | 11.0 | 0.03 | 0.03 | 0.03 | 79 | |
| 20260509192324 | 62 | 285 | 4.0 | 10.0 | 0.03 | 0.03 | 0.03 | 82 | |
| 20260509191802 | 61 | 324 | 3.0 | 10.0 | 0.03 | 0.03 | 0.03 | 85 | |
| 20260509191301 | 60 | 286 | 5.0 | 13.0 | 0.03 | 0.03 | 0.03 | 87 | |
| 20260509190800 | 59 | 290 | 4.0 | 15.0 | 0.03 | 0.03 | 0.03 | 88 | |
| 20260509190259 | 58 | 272 | 2.0 | 5.0 | 0.03 | 0.03 | 0.03 | 89 | |
| 20260509185820 | 57 | 293 | 4.0 | 12.0 | 0.03 | 0.03 | 0.03 | 89 | |
| 20260509185257 | 56 | 290 | 6.0 | 16.0 | 0.03 | 0.03 | 0.03 | 85 | |
| 20260509184756 | 58 | 295 | 9.0 | 25.0 | 0.03 | 0.03 | 0.03 | 78 | |
| 20260509184255 | 63 | 318 | 20.0 | 46.0 | 0.02 | 0.02 | 0.02 | 63 | |
| 20260509183754 | 66 | 305 | 16.0 | 36.0 | 0.00 | 0.00 | 0.00 | 50 | |
| 20260509183253 | 67 | 275 | 16.0 | 33.0 | 0.00 | 0.00 | 0.00 | 49 | |
| 20260509182752 | 67 | 244 | 15.0 | 33.0 | 0.00 | 0.00 | 0.00 | 47 | |
| 20260509182251 | 68 | 280 | 10.0 | 30.0 | 0.00 | 0.00 | 0.00 | 47 | |
| 20260509181750 | 69 | 285 | 16.0 | 42.0 | 0.00 | 0.00 | 0.00 | 46 | |
| 20260509181250 | 69 | 300 | 15.0 | 39.0 | 0.00 | 0.00 | 0.00 | 46 | |
| 20260509180748 | 71 | 279 | 18.0 | 30.0 | 0.00 | 0.00 | 0.00 | 45 | |
| 20260509180247 | 70 | 278 | 15.0 | 41.0 | 0.00 | 0.00 | 0.00 | 48 | |
| 20260509175746 | 67 | 261 | 13.0 | 34.0 | 0.00 | 0.00 | 0.00 | 50 | |
| 20260509175245 | 67 | 253 | 13.0 | 33.0 | 0.00 | 0.00 | 0.00 | 50 | |
| 20260509174744 | 67 | 245 | 17.0 | 39.0 | 0.00 | 0.00 | 0.00 | 49 | |
| 20260509174243 | 68 | 249 | 15.0 | 37.0 | 0.00 | 0.00 | 0.00 | 49 | |
| 20260509173742 | 69 | 257 | 19.0 | 36.0 | 0.00 | 0.00 | 0.00 | 48 | |
| 20260509173241 | 69 | 261 | 13.0 | 26.0 | 0.00 | 0.00 | 0.00 | 49 | |
| 20260509172740 | 69 | 278 | 16.0 | 39.0 | 0.00 | 0.00 | 0.00 | 48 | |
| 20260509172238 | 69 | 248 | 17.0 | 42.0 | 0.00 | 0.00 | 0.00 | 48 | |
| 20260509171738 | 69 | 249 | 13.0 | 32.0 | 0.00 | 0.00 | 0.00 | 49 | |
| 20260509171237 | 69 | 236 | 14.0 | 36.0 | 0.00 | 0.00 | 0.00 | 49 | |
| 20260509170735 | 69 | 239 | 16.0 | 31.0 | 0.00 | 0.00 | 0.00 | 48 | |
| 20260509170235 | 70 | 230 | 12.0 | 33.0 | 0.00 | 0.00 | 0.00 | 49 | |
| 20260509165734 | 70 | 251 | 10.0 | 24.0 | 0.00 | 0.00 | 0.00 | 48 | |
| 20260509165233 | 69 | 282 | 10.0 | 25.0 | 0.00 | 0.00 | 0.00 | 53 | |
| 20260509164732 | 69 | 226 | 12.0 | 21.0 | 0.00 | 0.00 | 0.00 | 51 | |
| 20260509164252 | 69 | 273 | 13.0 | 27.0 | 0.00 | 0.00 | 0.00 | 52 | |
| 20260509163729 | 69 | 230 | 15.0 | 35.0 | 0.00 | 0.00 | 0.00 | 53 | |
| 20260509163228 | 68 | 241 | 12.0 | 26.0 | 0.00 | 0.00 | 0.00 | 56 | |
| 20260509162727 | 67 | 225 | 13.0 | 27.0 | 0.00 | 0.00 | 0.00 | 56 | |
| 20260509162227 | 66 | 233 | 10.0 | 18.0 | 0.00 | 0.00 | 0.00 | 58 | |
| 20260509161746 | 66 | 226 | 10.0 | 18.0 | 0.00 | 0.00 | 0.00 | 57 | |
| 20260509161225 | 67 | 246 | 14.0 | 29.0 | 0.00 | 0.00 | 0.00 | 55 | |
| 20260509160723 | 67 | 216 | 11.0 | 32.0 | 0.00 | 0.00 | 0.00 | 57 | |
| 20260509160223 | 65 | 221 | 8.0 | 20.0 | 0.00 | 0.00 | 0.00 | 60 | |
| 20260509155743 | 64 | 229 | 10.0 | 19.0 | 0.00 | 0.00 | 0.00 | 60 | |
| 20260509155220 | 65 | 238 | 14.0 | 36.0 | 0.00 | 0.00 | 0.00 | 57 | |
| 20260509154720 | 67 | 242 | 11.0 | 24.0 | 0.00 | 0.00 | 0.00 | 57 | |
| 20260509154219 | 66 | 224 | 13.0 | 30.0 | 0.00 | 0.00 | 0.00 | 58 | |
| 20260509153717 | 65 | 224 | 15.0 | 29.0 | 0.00 | 0.00 | 0.00 | 60 | |
| 20260509153216 | 64 | 211 | 12.0 | 35.0 | 0.00 | 0.00 | 0.00 | 63 | |
| 20260509152715 | 63 | 220 | 11.0 | 26.0 | 0.00 | 0.00 | 0.00 | 65 | |
| 20260509152214 | 63 | 212 | 10.0 | 23.0 | 0.00 | 0.00 | 0.00 | 64 | |
| 20260509151714 | 63 | 226 | 10.0 | 21.0 | 0.00 | 0.00 | 0.00 | 63 | |
| 20260509151213 | 63 | 238 | 12.0 | 29.0 | 0.00 | 0.00 | 0.00 | 64 | |
| 20260509150711 | 64 | 223 | 9.0 | 21.0 | 0.00 | 0.00 | 0.00 | 65 | |
| 20260509150210 | 64 | 212 | 12.0 | 25.0 | 0.00 | 0.00 | 0.00 | 65 | |
| 20260509145709 | 63 | 209 | 10.0 | 17.0 | 0.00 | 0.00 | 0.00 | 68 | |
| 20260509145209 | 62 | 227 | 9.0 | 22.0 | 0.00 | 0.00 | 0.00 | 70 | |
| 20260509144708 | 61 | 215 | 10.0 | 21.0 | 0.00 | 0.00 | 0.00 | 70 | |
| 20260509144206 | 61 | 226 | 9.0 | 20.0 | 0.00 | 0.00 | 0.00 | 71 | |
| 20260509143705 | 61 | 223 | 11.0 | 28.0 | 0.00 | 0.00 | 0.00 | 71 | |
| 20260509143225 | 60 | 210 | 12.0 | 25.0 | 0.00 | 0.00 | 0.00 | 74 | |
| 20260509142703 | 59 | 207 | 10.0 | 17.0 | 0.00 | 0.00 | 0.00 | 76 | |
| 20260509142224 | 60 | 213 | 9.0 | 19.0 | 0.00 | 0.00 | 0.00 | 75 | |
| 20260509141701 | 60 | 210 | 10.0 | 22.0 | 0.00 | 0.00 | 0.00 | 76 | |
| 20260509141200 | 59 | 215 | 11.0 | 22.0 | 0.00 | 0.00 | 0.00 | 76 | |
| 20260509140659 | 58 | 205 | 12.0 | 21.0 | 0.00 | 0.00 | 0.00 | 78 | |
| 20260509140222 | 58 | 197 | 12.0 | 27.0 | 0.00 | 0.00 | 0.00 | 80 | |
| 20260509135657 | 57 | 221 | 9.0 | 16.0 | 0.00 | 0.00 | 0.00 | 81 | |
| 20260509135156 | 57 | 210 | 10.0 | 17.0 | 0.00 | 0.00 | 0.00 | 83 | |
| 20260509134655 | 56 | 203 | 11.0 | 18.0 | 0.00 | 0.00 | 0.00 | 84 | |
| 20260509134215 | 56 | 218 | 9.0 | 17.0 | 0.00 | 0.00 | 0.00 | 85 | |
| 20260509133715 | 55 | 225 | 7.0 | 19.0 | 0.00 | 0.00 | 0.00 | 86 | |
| 20260509133152 | 55 | 245 | 6.0 | 15.0 | 0.00 | 0.00 | 0.00 | 87 | |
| 20260509132651 | 55 | 210 | 8.0 | 18.0 | 0.00 | 0.00 | 0.00 | 89 | |
| 20260509132211 | 54 | 232 | 6.0 | 15.0 | 0.00 | 0.00 | 0.00 | 91 | |
| 20260509131649 | 54 | 232 | 6.0 | 13.0 | 0.00 | 0.00 | 0.00 | 92 | |
| 20260509131149 | 53 | 235 | 7.0 | 15.0 | 0.00 | 0.00 | 0.00 | 93 | |
| 20260509130647 | 53 | 220 | 11.0 | 20.0 | 0.00 | 0.00 | 0.00 | 94 | |
| 20260509130146 | 52 | 229 | 7.0 | 13.0 | 0.00 | 0.00 | 0.00 | 94 | |
| 20260509125645 | 52 | 216 | 7.0 | 18.0 | 0.00 | 0.00 | 0.00 | 95 | |
| 20260509125205 | 52 | 209 | 7.0 | 14.0 | 0.00 | 0.00 | 0.00 | 96 | |
| 20260509124643 | 51 | 208 | 10.0 | 22.0 | 0.00 | 0.00 | 0.00 | 96 | |
| 20260509124142 | 51 | 235 | 7.0 | 18.0 | 0.00 | 0.00 | 0.00 | 96 | |
| 20260509123641 | 51 | 224 | 6.0 | 15.0 | 0.00 | 0.00 | 0.00 | 96 | |
| 20260509123140 | 51 | 216 | 7.0 | 18.0 | 0.00 | 0.00 | 0.00 | 96 | |
| 20260509122639 | 51 | 201 | 6.0 | 12.0 | 0.00 | 0.00 | 0.00 | 97 | |
| 20260509122138 | 50 | 217 | 4.0 | 11.0 | 0.00 | 0.00 | 0.00 | 97 | |
| 20260509121637 | 50 | 225 | 6.0 | 15.0 | 0.00 | 0.00 | 0.00 | 97 | |
| 20260509121157 | 50 | 212 | 6.0 | 13.0 | 0.00 | 0.00 | 0.00 | 97 | |
| 20260509120635 | 50 | 221 | 2.0 | 10.0 | 0.00 | 0.00 | 0.00 | 97 | |
| 20260509120134 | 50 | 219 | 7.0 | 13.0 | 0.00 | 0.00 | 0.00 | 97 | |
| 20260509115633 | 50 | 202 | 7.0 | 13.0 | 0.00 | 0.00 | 0.00 | 97 | |
| 20260509115153 | 50 | 208 | 6.0 | 15.0 | 0.00 | 0.00 | 0.00 | 97 | |
| 20260509114631 | 50 | 208 | 5.0 | 11.0 | 0.00 | 0.00 | 0.00 | 97 | |
| 20260509114130 | 49 | 199 | 7.0 | 16.0 | 0.00 | 0.00 | 0.00 | 97 | |
| 20260509113650 | 49 | 204 | 7.0 | 19.0 | 0.00 | 0.00 | 0.00 | 97 | |
| 20260509113128 | 49 | 208 | 6.0 | 12.0 | 0.00 | 0.00 | 0.00 | 97 | |
| 20260509112627 | 49 | 217 | 4.0 | 10.0 | 0.00 | 0.00 | 0.00 | 97 | |
| 20260509112126 | 48 | 212 | 6.0 | 11.0 | 0.00 | 0.00 | 0.00 | 97 | |
| 20260509111625 | 48 | 223 | 3.0 | 11.0 | 0.00 | 0.00 | 0.00 | 97 | |
| 20260509111124 | 48 | 221 | 5.0 | 10.0 | 0.00 | 0.00 | 0.00 | 97 | |
| 20260509110623 | 48 | 231 | 2.0 | 6.0 | 0.00 | 0.00 | 0.00 | 97 | |
| 20260509110122 | 48 | 249 | 3.0 | 12.0 | 0.00 | 0.00 | 0.00 | 97 | |
| 20260509105621 | 47 | 234 | 1.0 | 5.0 | 0.00 | 0.00 | 0.00 | 97 | |
| 20260509105120 | 47 | 228 | 2.0 | 8.0 | 0.00 | 0.00 | 0.00 | 96 | |
| 20260509104619 | 47 | 230 | 1.0 | 5.0 | 0.00 | 0.00 | 0.00 | 96 | |
| 20260509104120 | 47 | 220 | 0.0 | 3.0 | 0.00 | 0.00 | 0.00 | 96 | |
| 20260509103638 | 47 | 255 | 1.0 | 4.0 | 0.00 | 0.00 | 0.00 | 96 | |
| 20260509103137 | 47 | 257 | 2.0 | 6.0 | 0.00 | 0.00 | 0.00 | 96 | |
| 20260509102615 | 47 | 254 | 1.0 | 6.0 | 0.00 | 0.00 | 0.00 | 96 | |
| 20260509102114 | 47 | 253 | 0.0 | 4.0 | 0.00 | 0.00 | 0.00 | 96 | |
| 20260509101613 | 47 | 261 | 2.0 | 6.0 | 0.00 | 0.00 | 0.00 | 96 | |
| 20260509101112 | 47 | 258 | 1.0 | 5.0 | 0.00 | 0.00 | 0.00 | 95 | |
| 20260509100611 | 47 | 266 | 1.0 | 5.0 | 0.00 | 0.00 | 0.00 | 95 | |
| 20260509100110 | 47 | 262 | 1.0 | 4.0 | 0.00 | 0.00 | 0.00 | 95 | |
| 20260509095609 | 47 | 265 | 1.0 | 7.0 | 0.00 | 0.00 | 0.00 | 95 | |
| 20260509095108 | 48 | 275 | 1.0 | 7.0 | 0.00 | 0.00 | 0.00 | 95 | |
| 20260509094628 | 48 | 285 | 1.0 | 4.0 | 0.00 | 0.00 | 0.00 | 95 | |
| 20260509094106 | 48 | 256 | 2.0 | 5.0 | 0.00 | 0.00 | 0.00 | 95 | |
| 20260509093605 | 48 | 254 | 1.0 | 5.0 | 0.00 | 0.00 | 0.00 | 95 | |
| 20260509093103 | 48 | 253 | 1.0 | 3.0 | 0.00 | 0.00 | 0.00 | 95 | |
| 20260509092603 | 48 | 275 | 1.0 | 5.0 | 0.00 | 0.00 | 0.00 | 95 | |
| 20260509092102 | 48 | 271 | 1.0 | 6.0 | 0.00 | 0.00 | 0.00 | 95 | |
| 20260509091622 | 48 | 273 | 0.0 | 4.0 | 0.00 | 0.00 | 0.00 | 95 | |
| 20260509091100 | 48 | 262 | 2.0 | 6.0 | 0.00 | 0.00 | 0.00 | 94 | |
| 20260509090558 | 48 | 247 | 0.0 | 3.0 | 0.00 | 0.00 | 0.00 | 94 | |
| 20260509090058 | 48 | 199 | 0.0 | 2.0 | 0.00 | 0.00 | 0.00 | 94 | |
| 20260509085557 | 48 | 237 | 0.0 | 3.0 | 0.00 | 0.00 | 0.00 | 94 | |
| 20260509085116 | 48 | 267 | 0.0 | 4.0 | 0.00 | 0.00 | 0.00 | 94 | |
| 20260509084616 | 48 | 269 | 1.0 | 5.0 | 0.00 | 0.00 | 0.00 | 93 | |
| 20260509084054 | 48 | 254 | 1.0 | 6.0 | 0.00 | 0.00 | 0.00 | 93 | |
| 20260509083552 | 48 | 250 | 0.0 | 5.0 | 0.00 | 0.00 | 0.00 | 93 | |
| 20260509083051 | 48 | 268 | 0.0 | 4.0 | 0.00 | 0.00 | 0.00 | 93 | |
| 20260509082550 | 48 | 243 | 1.0 | 6.0 | 0.00 | 0.00 | 0.00 | 93 | |
| 20260509082050 | 47 | 276 | 3.0 | 6.0 | 0.00 | 0.00 | 0.00 | 93 | |
| 20260509081549 | 47 | 252 | 2.0 | 6.0 | 0.00 | 0.00 | 0.00 | 92 | |
| 20260509081047 | 47 | 280 | 0.0 | 0.0 | 0.00 | 0.00 | 0.00 | 92 | |
| 20260509080546 | 47 | 270 | 2.0 | 9.0 | 0.00 | 0.00 | 0.00 | 92 | |
| 20260509080046 | 47 | 268 | 1.0 | 6.0 | 0.00 | 0.00 | 0.00 | 91 | |
| 20260509075545 | 47 | 277 | 0.0 | 4.0 | 0.00 | 0.00 | 0.00 | 90 | |
| 20260509075044 | 47 | 283 | 0.0 | 2.0 | 0.00 | 0.00 | 0.00 | 90 | |
| 20260509074543 | 47 | 314 | 0.0 | 2.0 | 0.00 | 0.00 | 0.00 | 89 | |
| 20260509074042 | 47 | 330 | 0.0 | 0.0 | 0.00 | 0.00 | 0.00 | 89 | |
| 20260509073602 | 47 | 293 | 1.0 | 4.0 | 0.00 | 0.00 | 0.00 | 88 | |
| 20260509073101 | 48 | 283 | 1.0 | 4.0 | 0.00 | 0.00 | 0.00 | 89 | |
| 20260509072538 | 47 | 269 | 0.0 | 4.0 | 0.00 | 0.00 | 0.00 | 88 | |
| 20260509072038 | 47 | 262 | 1.0 | 6.0 | 0.00 | 0.00 | 0.00 | 88 | |
| 20260509071536 | 47 | 260 | 0.0 | 3.0 | 0.00 | 0.00 | 0.00 | 87 | |
| 20260509071036 | 48 | 263 | 0.0 | 6.0 | 0.00 | 0.00 | 0.00 | 86 | |
| 20260509070535 | 48 | 270 | 1.0 | 6.0 | 0.00 | 0.00 | 0.00 | 86 | |
| 20260509070034 | 48 | 273 | 0.0 | 2.0 | 0.00 | 0.00 | 0.00 | 85 | |
| 20260509065533 | 48 | 270 | 0.0 | 3.0 | 0.00 | 0.00 | 0.00 | 85 |